Alta, California
Current Conditions -  °F | °C
As of 7:52 PM on Wednesday 28 Jan 2015 (Local Time) from KBLU Reporting Station
Clear Clear  
Wind Chill: 42°   Ceiling: Unl
Heat Index: 46°   Visibility: 10mi
Dew Point: 26°   Wind: 8mph
Humidity: 46%   Direction: 60°ENE
Pressure: 30.25"   Gusts: NA
Location:  39.21°N, 120.81°W
Report Text: KBLU 290352Z AUTO 06007KT 030V100 10SM CLR 08/M03 A3025 RMK AO2 SLP215 T00781033
Loading
Personal Weather Stations






























Interactive Weather Map New forecast layout! Learn more

10-Day Weather Forecast

Advertisements
Track Severe Weather on mobile